Time;durP1;ratioP1;P1;durP2;ratioP2;P2;SDS_P1;SDS_P2;PMS_P1;PMS_P2;Temp;Humidity;BMP_temperature;BMP_pressure;BME280_temperature;BME280_humidity;BME280_pressure;Samples;Min_cycle;Max_cycle;Signal;HPM_P1;HPM_P2
2023/07/22 00:01:22;;;;;;;19.17;13.27;;;;;;;;;;6226634;28;20021;-83
2023/07/22 00:04:22;;;;;;;19.77;14.00;;;;;;;;;;6228595;28;20033;-83
2023/07/22 00:07:23;;;;;;;21.80;13.53;;;;;;;;;;6208087;28;20061;-83
2023/07/22 00:10:23;;;;;;;20.97;13.03;;;;;;;;;;6224822;28;20056;-83
2023/07/22 00:13:23;;;;;;;20.13;13.77;;;;;;;;;;6226905;28;20156;-83
2023/07/22 00:16:23;;;;;;;22.17;14.40;;;;;;;;;;6230458;28;20104;-83
2023/07/22 00:19:24;;;;;;;18.07;14.57;;;;;;;;;;6229412;28;20420;-83
2023/07/22 00:22:26;;;;;;;18.97;14.47;;;;;;;;;;6233620;28;20022;-83
2023/07/22 00:25:27;;;;;;;17.55;13.40;;;;;;;;;;6226464;28;20531;-83
2023/07/22 00:28:27;;;;;;;16.47;12.50;;;;;;;;;;6223219;28;20075;-83
2023/07/22 00:31:27;;;;;;;20.97;12.53;;;;;;;;;;6221484;28;20075;-82
2023/07/22 00:34:28;;;;;;;16.88;13.52;;;;;;;;;;6229517;28;20053;-82
2023/07/22 00:37:29;;;;;;;21.43;12.37;;;;;;;;;;6234665;28;20053;-82
2023/07/22 00:40:32;;;;;;;16.27;12.70;;;;;;;;;;6215919;28;20113;-82
2023/07/22 00:43:32;;;;;;;19.38;13.05;;;;;;;;;;6226200;28;20030;-82
2023/07/22 00:46:32;;;;;;;15.87;12.27;;;;;;;;;;6226793;28;20077;-82
2023/07/22 00:49:34;;;;;;;20.00;12.90;;;;;;;;;;6237479;28;20024;-82
2023/07/22 00:52:34;;;;;;;17.65;12.57;;;;;;;;;;6219046;28;20469;-82
2023/07/22 00:55:35;;;;;;;16.37;12.10;;;;;;;;;;6231056;28;20037;-82
2023/07/22 00:58:35;;;;;;;17.83;12.20;;;;;;;;;;6233461;28;20492;-82
2023/07/22 01:01:36;;;;;;;17.87;13.27;;;;;;;;;;6227271;28;20033;-82
2023/07/22 01:04:36;;;;;;;20.07;14.70;;;;;;;;;;6227861;28;20033;-82
2023/07/22 01:07:38;;;;;;;19.83;14.67;;;;;;;;;;6223943;28;20032;-81
2023/07/22 01:10:38;;;;;;;;;;;;;;;;;;6232714;28;20409;-82
2023/07/22 01:13:38;;;;;;;17.17;12.38;;;;;;;;;;6222351;28;20450;-82
2023/07/22 01:16:39;;;;;;;18.00;14.63;;;;;;;;;;6224508;28;20033;-82
2023/07/22 01:19:40;;;;;;;16.63;13.33;;;;;;;;;;6231672;28;20420;-82
2023/07/22 01:22:41;;;;;;;16.63;13.60;;;;;;;;;;6230581;28;20025;-82
2023/07/22 01:25:42;;;;;;;19.15;13.88;;;;;;;;;;6233690;28;20018;-82
2023/07/22 01:28:43;;;;;;;19.20;14.15;;;;;;;;;;6237316;28;20461;-82
2023/07/22 01:31:47;;;;;;;16.33;12.97;;;;;;;;;;6237355;28;20022;-82
2023/07/22 01:34:48;;;;;;;17.63;13.18;;;;;;;;;;6237099;28;20022;-82
2023/07/22 01:37:48;;;;;;;19.50;12.87;;;;;;;;;;6241464;28;20035;-82
2023/07/22 01:40:48;;;;;;;17.30;13.43;;;;;;;;;;6222260;28;20017;-82
2023/07/22 01:43:48;;;;;;;19.90;14.70;;;;;;;;;;6213155;28;20018;-82
2023/07/22 01:46:49;;;;;;;20.67;15.60;;;;;;;;;;6230084;28;20357;-82
2023/07/22 01:49:49;;;;;;;18.17;12.73;;;;;;;;;;6245064;28;20019;-82
2023/07/22 01:52:50;;;;;;;13.77;9.60;;;;;;;;;;6219017;28;20456;-82
2023/07/22 01:55:50;;;;;;;15.37;11.37;;;;;;;;;;6240627;28;20041;-82
2023/07/22 01:58:51;;;;;;;16.57;11.83;;;;;;;;;;6237373;28;20256;-82
2023/07/22 02:01:51;;;;;;;15.75;13.85;;;;;;;;;;6238657;28;20468;-82
2023/07/22 02:04:51;;;;;;;18.13;13.70;;;;;;;;;;6235608;28;20021;-82
2023/07/22 02:07:51;;;;;;;15.23;11.13;;;;;;;;;;6214960;28;20510;-82
2023/07/22 02:10:52;;;;;;;15.47;12.43;;;;;;;;;;6206335;28;20038;-82
2023/07/22 02:13:52;;;;;;;17.77;12.57;;;;;;;;;;6218928;28;20036;-82
2023/07/22 02:16:52;;;;;;;14.50;10.37;;;;;;;;;;6216020;28;20079;-82
2023/07/22 02:19:52;;;;;;;14.30;10.17;;;;;;;;;;6215660;28;20515;-82
2023/07/22 02:22:53;;;;;;;13.67;10.90;;;;;;;;;;6212141;28;20044;-82
2023/07/22 02:25:55;;;;;;;20.43;12.47;;;;;;;;;;6206292;28;20504;-82
2023/07/22 02:28:55;;;;;;;15.30;12.27;;;;;;;;;;6209660;28;20022;-82
2023/07/22 02:31:55;;;;;;;21.03;13.63;;;;;;;;;;6211460;28;20104;-83
2023/07/22 02:34:56;;;;;;;16.05;12.90;;;;;;;;;;6218228;28;20487;-82
2023/07/22 02:37:56;;;;;;;17.80;12.27;;;;;;;;;;6215433;28;20018;-82
2023/07/22 02:41:03;;;;;;;18.40;14.63;;;;;;;;;;6211995;28;20444;-82
2023/07/22 02:44:03;;;;;;;19.95;13.43;;;;;;;;;;6212785;28;20026;-82
2023/07/22 02:47:04;;;;;;;16.20;11.63;;;;;;;;;;6209030;28;20030;-83
2023/07/22 02:50:05;;;;;;;16.23;12.03;;;;;;;;;;6210397;28;20423;-82
2023/07/22 02:53:05;;;;;;;13.43;9.05;;;;;;;;;;6200818;28;20052;-83
2023/07/22 02:56:10;;;;;;;13.77;11.07;;;;;;;;;;6207152;28;20468;-83
2023/07/22 02:59:11;;;;;;;13.25;8.68;;;;;;;;;;6215827;28;20025;-83
2023/07/22 03:02:14;;;;;;;14.27;9.60;;;;;;;;;;6215838;28;20025;-83
2023/07/22 03:05:14;;;;;;;15.85;10.60;;;;;;;;;;6218317;28;20388;-83
2023/07/22 03:08:14;;;;;;;15.17;9.63;;;;;;;;;;6207438;28;20015;-83
2023/07/22 03:11:14;;;;;;;15.40;11.90;;;;;;;;;;6237665;28;20445;-82
2023/07/22 03:14:15;;;;;;;14.60;11.53;;;;;;;;;;6236822;28;20021;-83
2023/07/22 03:17:18;;;;;;;16.77;11.80;;;;;;;;;;6226350;28;20528;-82
2023/07/22 03:20:19;;;;;;;19.58;10.20;;;;;;;;;;6228004;28;20057;-83
2023/07/22 03:23:19;;;;;;;16.80;11.50;;;;;;;;;;6234871;28;20105;-83
2023/07/22 03:26:19;;;;;;;16.90;12.30;;;;;;;;;;6220759;28;20383;-83
2023/07/22 03:29:19;;;;;;;16.97;13.43;;;;;;;;;;6231309;28;20030;-83
2023/07/22 03:32:20;;;;;;;17.33;13.05;;;;;;;;;;6226044;28;20442;-83
2023/07/22 03:35:20;;;;;;;17.07;11.57;;;;;;;;;;6237987;28;20010;-83
2023/07/22 03:38:20;;;;;;;21.90;13.30;;;;;;;;;;6239614;28;20021;-83
2023/07/22 03:41:21;;;;;;;17.83;14.07;;;;;;;;;;6215285;28;20063;-83
2023/07/22 03:44:21;;;;;;;20.13;14.57;;;;;;;;;;6236938;28;20021;-83
2023/07/22 03:47:21;;;;;;;19.17;14.33;;;;;;;;;;6228613;28;20014;-83
2023/07/22 03:50:21;;;;;;;19.63;13.33;;;;;;;;;;6216688;28;20017;-83
2023/07/22 03:53:22;;;;;;;22.43;17.83;;;;;;;;;;6232947;28;20026;-83
2023/07/22 03:56:23;;;;;;;27.23;17.90;;;;;;;;;;6236747;28;20018;-83
2023/07/22 03:59:23;;;;;;;;;;;;;;;;;;6228610;28;20045;-83
2023/07/22 04:02:24;;;;;;;22.83;16.13;;;;;;;;;;6225196;28;19935;-83
2023/07/22 04:05:24;;;;;;;26.73;18.60;;;;;;;;;;6220075;28;20025;-83
2023/07/22 04:08:24;;;;;;;27.57;19.30;;;;;;;;;;6230182;28;20456;-83
2023/07/22 04:11:25;;;;;;;27.03;20.67;;;;;;;;;;6210154;28;20013;-83
2023/07/22 04:14:25;;;;;;;25.87;19.27;;;;;;;;;;6226476;28;20559;-83
2023/07/22 04:17:25;;;;;;;31.10;20.67;;;;;;;;;;6228917;28;20080;-83
2023/07/22 04:20:25;;;;;;;24.80;17.97;;;;;;;;;;6236763;28;20017;-83
2023/07/22 04:23:26;;;;;;;27.67;20.93;;;;;;;;;;6234494;28;20029;-83
2023/07/22 04:26:26;;;;;;;29.37;22.23;;;;;;;;;;6217301;28;20021;-83
2023/07/22 04:29:26;;;;;;;27.20;21.63;;;;;;;;;;6237121;28;20153;-83
2023/07/22 04:32:27;;;;;;;28.53;22.10;;;;;;;;;;6220174;28;20027;-83
2023/07/22 04:35:32;;;;;;;33.43;23.90;;;;;;;;;;6225131;28;20022;-83
2023/07/22 04:38:33;;;;;;;27.55;20.08;;;;;;;;;;6235536;28;20017;-83
2023/07/22 04:41:33;;;;;;;23.30;16.97;;;;;;;;;;6213994;28;20649;-83
2023/07/22 04:44:33;;;;;;;26.73;20.43;;;;;;;;;;6238962;28;20480;-83
2023/07/22 04:47:34;;;;;;;30.50;21.57;;;;;;;;;;6224711;28;20550;-83
2023/07/22 04:50:34;;;;;;;24.53;18.40;;;;;;;;;;6226715;28;20014;-83
2023/07/22 04:53:34;;;;;;;18.80;11.77;;;;;;;;;;6239055;28;20455;-84
2023/07/22 04:56:34;;;;;;;28.10;20.23;;;;;;;;;;6231610;28;20029;-84
2023/07/22 04:59:35;;;;;;;30.03;21.97;;;;;;;;;;6222367;28;20447;-83
2023/07/22 05:02:35;;;;;;;28.60;21.63;;;;;;;;;;6206730;28;20022;-83
2023/07/22 05:05:36;;;;;;;33.37;21.33;;;;;;;;;;6242610;28;20043;-83
2023/07/22 05:08:37;;;;;;;27.33;20.93;;;;;;;;;;6213902;28;20556;-83
2023/07/22 05:11:37;;;;;;;28.75;20.42;;;;;;;;;;6228073;28;20415;-83
2023/07/22 05:14:38;;;;;;;25.00;19.60;;;;;;;;;;6239079;28;20048;-83
2023/07/22 05:17:38;;;;;;;25.50;17.23;;;;;;;;;;6215733;28;20026;-83
2023/07/22 05:20:39;;;;;;;30.60;19.47;;;;;;;;;;6226937;28;20063;-82
2023/07/22 05:23:39;;;;;;;23.13;16.52;;;;;;;;;;6222962;28;20061;-83
2023/07/22 05:26:39;;;;;;;21.77;17.30;;;;;;;;;;6234609;28;20017;-82
2023/07/22 05:29:39;;;;;;;20.63;14.23;;;;;;;;;;6238478;28;20037;-83
2023/07/22 05:32:40;;;;;;;17.90;12.63;;;;;;;;;;6234725;28;20080;-83
2023/07/22 05:35:40;;;;;;;18.73;14.37;;;;;;;;;;6236800;28;20029;-83
2023/07/22 05:38:41;;;;;;;15.67;11.67;;;;;;;;;;6235170;28;20487;-83
2023/07/22 05:41:41;;;;;;;20.33;12.93;;;;;;;;;;6229158;28;20083;-83
2023/07/22 05:44:41;;;;;;;17.33;12.93;;;;;;;;;;6246047;28;20029;-83
2023/07/22 05:47:42;;;;;;;16.83;12.90;;;;;;;;;;6220380;28;20476;-83
2023/07/22 05:50:42;;;;;;;13.57;10.33;;;;;;;;;;6207790;28;20026;-83
2023/07/22 05:53:42;;;;;;;17.10;10.97;;;;;;;;;;6246655;28;20100;-83
2023/07/22 05:56:42;;;;;;;15.30;10.10;;;;;;;;;;6208614;28;20022;-83
2023/07/22 05:59:43;;;;;;;13.63;10.00;;;;;;;;;;6228806;28;20171;-83
2023/07/22 06:02:43;;;;;;;18.17;10.00;;;;;;;;;;6237110;28;20029;-82
2023/07/22 06:05:43;;;;;;;13.63;9.30;;;;;;;;;;6233046;28;20110;-82
2023/07/22 06:08:43;;;;;;;11.03;7.67;;;;;;;;;;6233172;28;20050;-82
2023/07/22 06:11:44;;;;;;;9.63;7.77;;;;;;;;;;6230134;28;20022;-82
2023/07/22 06:14:44;;;;;;;9.43;6.40;;;;;;;;;;6212830;28;20414;-83
2023/07/22 06:17:44;;;;;;;7.13;4.90;;;;;;;;;;6209587;28;20114;-82
2023/07/22 06:20:45;;;;;;;9.47;5.40;;;;;;;;;;6218431;28;20025;-83
2023/07/22 06:23:46;;;;;;;5.13;4.00;;;;;;;;;;6200285;28;20042;-84
2023/07/22 06:26:46;;;;;;;8.80;4.32;;;;;;;;;;6234832;28;20076;-83
2023/07/22 06:29:46;;;;;;;5.07;3.60;;;;;;;;;;6233189;28;20021;-83
2023/07/22 06:32:46;;;;;;;4.83;3.80;;;;;;;;;;6216120;28;20033;-84
2023/07/22 06:35:47;;;;;;;6.17;3.57;;;;;;;;;;6235526;28;20428;-83
2023/07/22 06:38:47;;;;;;;5.57;3.27;;;;;;;;;;6245121;28;20051;-83
2023/07/22 06:41:47;;;;;;;5.27;3.23;;;;;;;;;;6239374;28;20022;-83
2023/07/22 06:44:47;;;;;;;7.03;3.17;;;;;;;;;;6237605;28;20029;-83
2023/07/22 06:47:47;;;;;;;11.03;3.57;;;;;;;;;;6241032;28;20024;-86
2023/07/22 06:50:48;;;;;;;4.23;2.90;;;;;;;;;;6220439;28;20037;-83
2023/07/22 06:53:48;;;;;;;6.00;3.87;;;;;;;;;;6232467;28;20036;-83
2023/07/22 06:56:48;;;;;;;4.72;3.10;;;;;;;;;;6237964;28;20076;-83
2023/07/22 06:59:50;;;;;;;7.27;3.70;;;;;;;;;;6235261;28;20026;-83
2023/07/22 07:02:51;;;;;;;5.05;2.85;;;;;;;;;;6215548;28;20076;-83
2023/07/22 07:05:54;;;;;;;4.30;2.80;;;;;;;;;;6235368;28;20022;-82
2023/07/22 07:08:55;;;;;;;4.57;3.20;;;;;;;;;;6221962;28;20045;-83
2023/07/22 07:11:56;;;;;;;5.07;3.03;;;;;;;;;;6224782;28;20076;-83
2023/07/22 07:14:57;;;;;;;4.80;3.00;;;;;;;;;;6236005;28;20025;-83
2023/07/22 07:17:57;;;;;;;6.63;3.23;;;;;;;;;;6229842;28;20106;-83
2023/07/22 07:20:57;;;;;;;6.57;3.73;;;;;;;;;;6223090;28;20029;-84
2023/07/22 07:23:59;;;;;;;5.77;3.17;;;;;;;;;;6230463;28;20032;-86
2023/07/22 07:26:59;;;;;;;7.38;4.97;;;;;;;;;;6221994;28;20469;-85
2023/07/22 07:29:59;;;;;;;8.15;3.53;;;;;;;;;;6243797;28;20032;-86
2023/07/22 07:33:00;;;;;;;4.17;2.70;;;;;;;;;;6242735;28;20503;-87
2023/07/22 07:36:00;;;;;;;5.80;2.83;;;;;;;;;;6223826;28;20029;-87
2023/07/22 07:39:01;;;;;;;7.60;3.33;;;;;;;;;;6238775;28;20022;-88
2023/07/22 07:42:01;;;;;;;5.67;2.93;;;;;;;;;;6219951;28;20040;-87
2023/07/22 07:45:02;;;;;;;5.67;2.50;;;;;;;;;;6242667;28;20338;-87
2023/07/22 07:48:02;;;;;;;3.95;2.00;;;;;;;;;;6224543;28;20487;-86
2023/07/22 07:51:03;;;;;;;7.13;2.27;;;;;;;;;;6244152;28;20545;-85
2023/07/22 07:54:04;;;;;;;5.28;2.85;;;;;;;;;;6242175;28;20036;-85
2023/07/22 07:57:04;;;;;;;5.28;2.47;;;;;;;;;;6239442;28;20033;-85
2023/07/22 08:00:08;;;;;;;2.83;2.30;;;;;;;;;;6225349;28;20108;-84
2023/07/22 08:03:08;;;;;;;3.38;2.28;;;;;;;;;;6223362;28;20030;-85
2023/07/22 08:06:08;;;;;;;5.47;2.20;;;;;;;;;;6219014;28;20396;-85
2023/07/22 08:09:10;;;;;;;9.05;2.95;;;;;;;;;;6234823;28;20087;-85
2023/07/22 08:12:10;;;;;;;2.95;2.53;;;;;;;;;;6228304;28;20373;-86
2023/07/22 08:15:11;;;;;;;3.20;1.90;;;;;;;;;;6233042;28;20053;-85
2023/07/22 08:18:11;;;;;;;2.83;1.60;;;;;;;;;;6221003;28;20037;-85
2023/07/22 08:21:11;;;;;;;2.93;2.07;;;;;;;;;;6241915;28;20484;-85
2023/07/22 08:24:11;;;;;;;5.20;1.80;;;;;;;;;;6239741;28;20112;-86
2023/07/22 08:27:11;;;;;;;3.00;2.17;;;;;;;;;;6242284;28;20097;-85
2023/07/22 08:30:12;;;;;;;5.13;2.30;;;;;;;;;;6247212;28;20025;-85
2023/07/22 08:33:12;;;;;;;1.97;1.60;;;;;;;;;;6227745;28;20117;-85
2023/07/22 08:36:12;;;;;;;4.20;2.43;;;;;;;;;;6229493;28;20029;-85
2023/07/22 08:39:13;;;;;;;4.00;2.17;;;;;;;;;;6247508;28;20024;-86
2023/07/22 08:42:14;;;;;;;4.77;2.17;;;;;;;;;;6271039;28;20052;-86
2023/07/22 08:45:15;;;;;;;4.50;2.13;;;;;;;;;;6269810;28;20029;-87
2023/07/22 08:48:18;;;;;;;3.95;2.30;;;;;;;;;;6266357;28;20044;-86
2023/07/22 08:51:18;;;;;;;3.78;2.05;;;;;;;;;;6271265;28;20033;-87
2023/07/22 08:54:20;;;;;;;2.55;1.77;;;;;;;;;;6264722;28;20006;-88
2023/07/22 08:57:21;;;;;;;2.40;1.88;;;;;;;;;;6229687;28;20093;-88
2023/07/22 09:00:22;;;;;;;4.35;2.10;;;;;;;;;;6251797;28;20184;-88
2023/07/22 09:03:23;;;;;;;3.28;1.98;;;;;;;;;;6235016;28;20017;-88
2023/07/22 09:06:23;;;;;;;;;;;;;;;;;;6225225;28;20042;-88
2023/07/22 09:09:24;;;;;;;4.13;1.80;;;;;;;;;;6245288;28;19921;-88
2023/07/22 09:12:25;;;;;;;3.03;1.50;;;;;;;;;;6243541;28;20029;-87
2023/07/22 09:15:26;;;;;;;2.72;1.80;;;;;;;;;;6244458;28;20444;-87
2023/07/22 09:18:26;;;;;;;4.03;1.92;;;;;;;;;;6245482;28;20017;-87
2023/07/22 09:21:27;;;;;;;2.17;1.77;;;;;;;;;;6247105;28;20162;-87
2023/07/22 09:24:28;;;;;;;1.75;1.55;;;;;;;;;;6244940;28;20052;-86
2023/07/22 09:27:34;;;;;;;1.87;1.60;;;;;;;;;;6233703;28;20017;-87
2023/07/22 09:30:38;;;;;;;2.72;1.63;;;;;;;;;;6239810;28;20025;-87
2023/07/22 09:33:38;;;;;;;5.13;2.10;;;;;;;;;;6235924;28;20022;-87
2023/07/22 09:36:48;;;;;;;2.50;1.67;;;;;;;;;;6232528;28;20427;-87
2023/07/22 09:39:49;;;;;;;2.17;1.77;;;;;;;;;;6216951;28;20517;-87
2023/07/22 09:42:50;;;;;;;2.20;1.88;;;;;;;;;;6234501;28;20072;-88
2023/07/22 09:45:51;;;;;;;;;;;;;;;;;;6242226;28;20464;-87
2023/07/22 09:48:52;;;;;;;4.55;1.90;;;;;;;;;;6216875;28;19916;-89
2023/07/22 09:51:53;;;;;;;2.22;1.77;;;;;;;;;;6222385;28;20025;-87
2023/07/22 09:54:55;;;;;;;4.23;2.00;;;;;;;;;;6231315;28;20025;-87
2023/07/22 09:57:57;;;;;;;2.58;1.92;;;;;;;;;;6239156;28;20028;-87
2023/07/22 10:00:57;;;;;;;;;;;;;;;;;;6243747;28;20035;-87
2023/07/22 10:03:58;;;;;;;4.38;2.30;;;;;;;;;;6236703;28;19917;-87
2023/07/22 10:06:58;;;;;;;6.63;1.98;;;;;;;;;;6246109;28;20623;-87
2023/07/22 10:09:58;;;;;;;2.97;2.00;;;;;;;;;;6241467;28;20042;-87
2023/07/22 10:12:59;;;;;;;2.47;1.97;;;;;;;;;;6237387;28;20026;-87
2023/07/22 10:16:00;;;;;;;4.03;1.98;;;;;;;;;;6235719;28;20423;-87
2023/07/22 10:19:01;;;;;;;3.50;1.67;;;;;;;;;;6241087;28;20480;-87
2023/07/22 10:22:01;;;;;;;4.30;1.88;;;;;;;;;;6228666;28;20028;-87
2023/07/22 10:25:04;;;;;;;3.23;1.67;;;;;;;;;;6245429;28;20025;-87
2023/07/22 10:28:05;;;;;;;4.00;2.35;;;;;;;;;;6215224;28;20017;-87
2023/07/22 10:31:05;;;;;;;;;;;;;;;;;;6224729;28;20451;-87
2023/07/22 10:34:06;;;;;;;4.00;2.53;;;;;;;;;;6231855;28;19909;-88
2023/07/22 10:37:08;;;;;;;3.00;1.67;;;;;;;;;;6221362;28;20040;-88
2023/07/22 10:40:21;;;;;;;5.53;2.30;;;;;;;;;;6214416;28;20022;-87
2023/07/22 10:43:26;;;;;;;3.20;2.03;;;;;;;;;;6209869;28;20534;-87
2023/07/22 10:46:39;;;;;;;3.80;2.15;;;;;;;;;;6207274;28;20113;-88
2023/07/22 10:49:44;;;;;;;2.08;1.65;;;;;;;;;;6211793;28;20109;-88
2023/07/22 10:52:45;;;;;;;5.18;2.63;;;;;;;;;;6219102;28;20029;-88
2023/07/22 10:56:04;;;;;;;5.13;2.20;;;;;;;;;;6226791;28;20057;-87
2023/07/22 10:59:05;;;;;;;8.45;4.65;;;;;;;;;;6225291;28;20629;-88
2023/07/22 11:02:07;;;;;;;8.00;2.97;;;;;;;;;;6225262;28;20025;-88
2023/07/22 11:05:11;;;;;;;2.35;1.92;;;;;;;;;;6226129;28;20025;-88
2023/07/22 11:08:11;;;;;;;5.57;2.95;;;;;;;;;;6216924;28;20472;-87
2023/07/22 11:11:12;;;;;;;6.97;3.50;;;;;;;;;;6212293;28;20018;-88
2023/07/22 11:14:16;;;;;;;3.80;2.20;;;;;;;;;;6226361;28;20152;-87
2023/07/22 11:17:17;;;;;;;2.55;1.90;;;;;;;;;;6220776;28;20049;-88
2023/07/22 11:20:17;;;;;;;;;;;;;;;;;;6216116;28;20057;-87
2023/07/22 11:23:17;;;;;;;4.53;2.35;;;;;;;;;;6237407;28;19917;-89
2023/07/22 11:26:18;;;;;;;5.13;2.90;;;;;;;;;;6239270;28;20066;-88
2023/07/22 11:29:18;;;;;;;9.17;3.03;;;;;;;;;;6227176;28;20800;-88
2023/07/22 11:32:21;;;;;;;3.53;1.80;;;;;;;;;;6225218;28;20089;-88
2023/07/22 11:35:22;;;;;;;6.53;2.42;;;;;;;;;;6240433;28;20017;-88
2023/07/22 11:38:23;;;;;;;3.93;2.00;;;;;;;;;;6232426;28;20032;-87
2023/07/22 11:41:24;;;;;;;4.15;2.05;;;;;;;;;;6240410;28;20025;-88
2023/07/22 11:44:27;;;;;;;3.85;2.10;;;;;;;;;;6220974;28;20495;-88
2023/07/22 11:47:33;;;;;;;5.82;2.75;;;;;;;;;;6215980;28;20108;-88
2023/07/22 11:50:33;;;;;;;2.80;1.83;;;;;;;;;;6240518;28;20014;-87
2023/07/22 11:53:34;;;;;;;3.23;1.83;;;;;;;;;;6241667;28;20037;-88
2023/07/22 11:56:34;;;;;;;2.83;1.80;;;;;;;;;;6236640;28;20807;-88
2023/07/22 11:59:36;;;;;;;5.23;2.07;;;;;;;;;;6242237;28;20021;-88
2023/07/22 12:02:36;;;;;;;5.05;2.08;;;;;;;;;;6239907;28;20021;-88
2023/07/22 12:05:37;;;;;;;4.18;2.10;;;;;;;;;;6238233;28;20028;-88
2023/07/22 12:08:48;;;;;;;5.03;2.08;;;;;;;;;;6241208;28;20500;-88
2023/07/22 12:11:54;;;;;;;4.33;1.70;;;;;;;;;;6226314;28;20715;-88
2023/07/22 12:14:54;;;;;;;3.03;1.63;;;;;;;;;;6224059;28;20025;-88
2023/07/22 12:18:00;;;;;;;4.13;2.53;;;;;;;;;;6221738;28;20115;-88
2023/07/22 12:21:03;;;;;;;2.42;2.00;;;;;;;;;;6232938;28;20651;-88
2023/07/22 12:24:04;;;;;;;4.07;2.42;;;;;;;;;;6232285;28;20025;-88
2023/07/22 12:27:05;;;;;;;2.85;2.03;;;;;;;;;;6217888;28;20627;-88
2023/07/22 12:30:06;;;;;;;3.72;2.47;;;;;;;;;;6212553;28;20452;-88
2023/07/22 12:33:07;;;;;;;3.33;2.13;;;;;;;;;;6227392;28;20029;-88
2023/07/22 12:36:07;;;;;;;4.30;2.30;;;;;;;;;;6227244;28;20096;-88
2023/07/22 12:39:07;;;;;;;4.17;2.50;;;;;;;;;;6216616;28;20058;-87
2023/07/22 12:42:08;;;;;;;14.13;3.00;;;;;;;;;;6227202;28;20029;-88
2023/07/22 12:45:08;;;;;;;6.28;2.00;;;;;;;;;;6212377;28;20030;-88
2023/07/22 12:48:09;;;;;;;2.92;2.00;;;;;;;;;;6221015;28;20568;-88
2023/07/22 12:51:09;;;;;;;13.00;3.45;;;;;;;;;;6232515;28;20014;-88
2023/07/22 12:54:10;;;;;;;13.40;3.23;;;;;;;;;;6225886;28;20033;-87
2023/07/22 12:57:10;;;;;;;5.97;2.80;;;;;;;;;;6240945;28;20029;-87
2023/07/22 13:00:10;;;;;;;3.03;1.80;;;;;;;;;;6217337;28;20010;-88
2023/07/22 13:03:11;;;;;;;4.78;2.10;;;;;;;;;;6217388;28;20073;-88
2023/07/22 13:06:11;;;;;;;3.83;2.37;;;;;;;;;;6234374;28;20026;-88
2023/07/22 13:09:11;;;;;;;3.80;2.17;;;;;;;;;;6236267;28;20433;-88
2023/07/22 13:12:12;;;;;;;4.87;2.03;;;;;;;;;;6225587;28;20014;-88
2023/07/22 13:15:12;;;;;;;28.43;6.67;;;;;;;;;;6240464;28;20028;-87
2023/07/22 13:18:13;;;;;;;9.40;2.87;;;;;;;;;;6243430;28;20022;-88
2023/07/22 13:21:13;;;;;;;;;;;;;;;;;;6239226;28;20013;-87
2023/07/22 13:24:14;;;;;;;5.38;3.05;;;;;;;;;;6234435;28;19913;-88
2023/07/22 13:27:14;;;;;;;4.47;2.60;;;;;;;;;;6204180;28;20022;-87
2023/07/22 13:30:14;;;;;;;5.57;2.60;;;;;;;;;;6225850;28;20093;-88
2023/07/22 13:33:14;;;;;;;3.97;1.80;;;;;;;;;;6229680;28;20092;-88
2023/07/22 13:36:15;;;;;;;5.83;3.27;;;;;;;;;;6225686;28;20049;-87
2023/07/22 13:39:15;;;;;;;5.57;2.50;;;;;;;;;;6241271;28;20483;-88
2023/07/22 13:42:15;;;;;;;3.20;2.20;;;;;;;;;;6237539;28;20472;-89
2023/07/22 13:45:15;;;;;;;9.07;3.17;;;;;;;;;;6243225;28;20111;-89
2023/07/22 13:48:15;;;;;;;4.17;2.70;;;;;;;;;;6240770;28;20018;-88
2023/07/22 13:51:16;;;;;;;9.90;2.10;;;;;;;;;;6245979;28;20021;-89
2023/07/22 13:54:16;;;;;;;6.87;3.00;;;;;;;;;;6242008;28;20096;-88
2023/07/22 13:57:16;;;;;;;5.97;2.30;;;;;;;;;;6232695;28;20026;-89
2023/07/22 14:00:16;;;;;;;3.30;2.00;;;;;;;;;;6222215;28;20396;-88
2023/07/22 14:03:17;;;;;;;;;;;;;;;;;;6236130;28;20056;-88
2023/07/22 14:06:17;;;;;;;1.83;1.40;;;;;;;;;;6230818;28;20367;-89
2023/07/22 14:09:17;;;;;;;3.90;2.53;;;;;;;;;;6235057;28;20148;-89
2023/07/22 14:12:20;;;;;;;2.27;1.93;;;;;;;;;;6239614;28;20071;-88
2023/07/22 14:15:20;;;;;;;2.55;1.90;;;;;;;;;;6207966;28;20022;-88
2023/07/22 14:18:20;;;;;;;;;;;;;;;;;;6223002;28;20017;-89
2023/07/22 14:21:20;;;;;;;3.13;2.17;;;;;;;;;;6226767;28;19905;-88
2023/07/22 14:24:21;;;;;;;;;;;;;;;;;;6215750;28;20013;-88
2023/07/22 14:27:21;;;;;;;8.60;2.10;;;;;;;;;;6243570;28;19913;-88
2023/07/22 14:30:21;;;;;;;9.03;2.23;;;;;;;;;;6236364;28;20381;-88
2023/07/22 14:33:21;;;;;;;3.53;1.90;;;;;;;;;;6228775;28;20025;-88
2023/07/22 14:36:22;;;;;;;8.07;2.57;;;;;;;;;;6227585;28;20279;-88
2023/07/22 14:39:22;;;;;;;;;;;;;;;;;;6218521;28;20029;-88
2023/07/22 14:42:22;;;;;;;3.38;2.47;;;;;;;;;;6244537;28;19912;-88
2023/07/22 14:45:22;;;;;;;;;;;;;;;;;;6236644;28;20120;-88
2023/07/22 14:48:22;;;;;;;5.82;2.10;;;;;;;;;;6229076;28;19909;-88
2023/07/22 14:51:23;;;;;;;;;;;;;;;;;;6234488;28;20121;-88
2023/07/22 14:54:23;;;;;;;6.18;2.40;;;;;;;;;;6224049;28;20015;-88
2023/07/22 14:57:26;;;;;;;;;;;;;;;;;;6231763;28;20036;-88
2023/07/22 15:00:26;;;;;;;3.97;1.77;;;;;;;;;;6220140;28;19909;-88
2023/07/22 15:03:26;;;;;;;2.77;1.90;;;;;;;;;;6225377;28;20060;-88
2023/07/22 15:06:27;;;;;;;;;;;;;;;;;;6224390;28;20025;-88
2023/07/22 15:09:27;;;;;;;3.00;2.03;;;;;;;;;;6242960;28;19917;-88
2023/07/22 15:12:27;;;;;;;3.90;2.27;;;;;;;;;;6215662;28;20476;-88
2023/07/22 15:15:28;;;;;;;4.57;2.72;;;;;;;;;;6230873;28;20104;-88
2023/07/22 15:18:28;;;;;;;4.50;2.73;;;;;;;;;;6238933;28;20719;-88
2023/07/22 15:21:28;;;;;;;4.10;2.33;;;;;;;;;;6234796;28;20350;-88
2023/07/22 15:24:28;;;;;;;4.40;2.37;;;;;;;;;;6230836;28;20153;-88
2023/07/22 15:27:29;;;;;;;4.57;2.90;;;;;;;;;;6231292;28;20014;-88
2023/07/22 15:30:29;;;;;;;4.40;2.60;;;;;;;;;;6233236;28;20487;-88
2023/07/22 15:33:29;;;;;;;3.17;2.13;;;;;;;;;;6216656;28;20075;-88
2023/07/22 15:36:29;;;;;;;5.70;2.60;;;;;;;;;;6239538;28;20484;-87
2023/07/22 15:39:29;;;;;;;3.60;2.20;;;;;;;;;;6240682;28;20531;-89
2023/07/22 15:42:30;;;;;;;5.50;2.67;;;;;;;;;;6234575;28;20022;-89
2023/07/22 15:45:30;;;;;;;5.00;2.93;;;;;;;;;;6234870;28;20026;-88
2023/07/22 15:48:30;;;;;;;8.23;2.63;;;;;;;;;;6229103;28;20022;-88
2023/07/22 15:51:30;;;;;;;3.93;2.73;;;;;;;;;;6231010;28;20017;-88
2023/07/22 15:54:31;;;;;;;3.83;2.47;;;;;;;;;;6235639;28;20010;-88
2023/07/22 15:57:31;;;;;;;4.50;3.27;;;;;;;;;;6211247;28;20040;-88
2023/07/22 16:00:31;;;;;;;4.90;2.80;;;;;;;;;;6243021;28;20025;-88
2023/07/22 16:03:31;;;;;;;7.77;2.90;;;;;;;;;;6227875;28;20025;-88
2023/07/22 16:06:31;;;;;;;4.07;2.30;;;;;;;;;;6216517;28;20411;-88
2023/07/22 16:09:32;;;;;;;4.53;3.10;;;;;;;;;;6224526;28;20513;-88
2023/07/22 16:12:32;;;;;;;3.43;2.60;;;;;;;;;;6233863;28;20103;-88
2023/07/22 16:15:32;;;;;;;5.50;2.57;;;;;;;;;;6239610;28;20009;-88
2023/07/22 16:18:33;;;;;;;4.03;2.63;;;;;;;;;;6234240;28;20022;-88
2023/07/22 16:21:33;;;;;;;4.95;3.20;;;;;;;;;;6208702;28;20052;-88
2023/07/22 16:24:34;;;;;;;6.73;3.30;;;;;;;;;;6234133;28;20025;-88
2023/07/22 16:27:34;;;;;;;;;;;;;;;;;;6213428;28;20176;-88
2023/07/22 16:30:34;;;;;;;5.45;2.47;;;;;;;;;;6239165;28;19959;-88
2023/07/22 16:33:34;;;;;;;;;;;;;;;;;;6228722;28;20028;-88
2023/07/22 16:36:34;;;;;;;4.45;2.72;;;;;;;;;;6230026;28;20282;-88
2023/07/22 16:39:35;;;;;;;3.73;1.90;;;;;;;;;;6211281;28;20025;-88
2023/07/22 16:42:37;;;;;;;6.10;2.20;;;;;;;;;;6235127;28;20084;-89
2023/07/22 16:45:38;;;;;;;2.47;2.10;;;;;;;;;;6224927;28;20388;-89
2023/07/22 16:48:38;;;;;;;3.57;2.10;;;;;;;;;;6234601;28;20060;-89
2023/07/22 16:51:38;;;;;;;2.72;2.00;;;;;;;;;;6222467;28;20264;-88
2023/07/22 16:54:39;;;;;;;2.70;2.23;;;;;;;;;;6231011;28;20024;-89
2023/07/22 16:57:39;;;;;;;3.30;2.75;;;;;;;;;;6230433;28;20264;-88
2023/07/22 17:00:39;;;;;;;5.72;3.03;;;;;;;;;;6236862;28;20132;-84
2023/07/22 17:03:40;;;;;;;6.50;3.87;;;;;;;;;;6238235;28;20460;-85
2023/07/22 17:06:40;;;;;;;4.17;2.40;;;;;;;;;;6234887;28;20311;-84
2023/07/22 17:09:40;;;;;;;6.00;2.90;;;;;;;;;;6234742;28;20794;-84
2023/07/22 17:12:40;;;;;;;8.10;3.90;;;;;;;;;;6227436;28;20022;-84
2023/07/22 17:15:40;;;;;;;;;;;;;;;;;;6231808;28;20018;-85
2023/07/22 17:18:41;;;;;;;3.53;2.40;;;;;;;;;;6230992;28;19948;-84
2023/07/22 17:21:41;;;;;;;4.97;2.37;;;;;;;;;;6238698;28;20563;-85
2023/07/22 17:24:41;;;;;;;2.60;2.37;;;;;;;;;;6236261;28;20029;-85
2023/07/22 17:27:41;;;;;;;4.10;2.53;;;;;;;;;;6220295;28;20021;-86
2023/07/22 17:30:41;;;;;;;4.73;2.63;;;;;;;;;;6229390;28;20022;-86
2023/07/22 17:33:42;;;;;;;4.83;2.90;;;;;;;;;;6214419;28;20075;-85
2023/07/22 17:36:42;;;;;;;3.67;2.70;;;;;;;;;;6216074;28;20392;-86
2023/07/22 17:39:42;;;;;;;4.17;2.30;;;;;;;;;;6232178;28;20307;-85
2023/07/22 17:42:43;;;;;;;4.30;2.57;;;;;;;;;;6237936;28;20481;-86
2023/07/22 17:45:44;;;;;;;3.63;2.07;;;;;;;;;;6239111;28;20809;-85
2023/07/22 17:48:44;;;;;;;6.57;3.15;;;;;;;;;;6240775;28;20022;-85
2023/07/22 17:51:45;;;;;;;4.13;2.67;;;;;;;;;;6228199;28;20029;-85
2023/07/22 17:54:45;;;;;;;7.30;2.80;;;;;;;;;;6217609;28;20128;-85
2023/07/22 17:57:45;;;;;;;5.03;3.07;;;;;;;;;;6231901;28;20040;-86
2023/07/22 18:00:45;;;;;;;7.20;3.10;;;;;;;;;;6240813;28;20021;-86